Time;durP1;ratioP1;P1;durP2;ratioP2;P2;SDS_P1;SDS_P2;PMS_P1;PMS_P2;Temp;Humidity;BMP_temperature;BMP_pressure;BME280_temperature;BME280_humidity;BME280_pressure;Samples;Min_cycle;Max_cycle;Signal;HPM_P1;HPM_P2
2021/10/08 00:01:31;;;;;;;121.65;36.65;;;;;;;8.42;100.00;102414.69;5000809;28;20067;-71
2021/10/08 00:04:01;;;;;;;162.80;35.35;;;;;;;7.93;100.00;102406.56;4993740;28;20074;-71
2021/10/08 00:06:29;;;;;;;38.90;17.00;;;;;;;7.23;100.00;102413.09;5000979;28;20354;-71
2021/10/08 00:08:57;;;;;;;38.83;16.73;;;;;;;6.78;100.00;102412.50;4999874;28;20038;-71
2021/10/08 00:11:25;;;;;;;40.08;16.30;;;;;;;6.46;100.00;102414.56;5004105;28;20346;-71
2021/10/08 00:13:54;;;;;;;33.63;15.73;;;;;;;6.31;100.00;102409.28;5002572;28;20389;-71
2021/10/08 00:16:22;;;;;;;54.75;17.70;;;;;;;6.16;100.00;102415.53;5001575;28;20501;-71
2021/10/08 00:18:50;;;;;;;35.38;14.48;;;;;;;6.00;100.00;102410.31;5004863;28;20049;-70
2021/10/08 00:21:19;;;;;;;32.08;12.05;;;;;;;5.99;100.00;102411.25;5005151;28;20049;-71
2021/10/08 00:23:47;;;;;;;38.67;15.27;;;;;;;6.05;100.00;102413.53;4998134;28;20046;-70
2021/10/08 00:26:15;;;;;;;35.17;14.55;;;;;;;6.09;100.00;102415.03;5003147;28;20042;-70
2021/10/08 00:28:43;;;;;;;38.35;14.80;;;;;;;6.09;100.00;102415.03;5001547;28;20050;-70
2021/10/08 00:31:11;;;;;;;29.45;13.65;;;;;;;6.19;100.00;102410.91;5001148;28;20046;-70
2021/10/08 00:33:39;;;;;;;38.88;15.27;;;;;;;6.31;100.00;102408.44;5001113;28;20050;-70
2021/10/08 00:36:07;;;;;;;31.27;14.38;;;;;;;6.33;100.00;102404.69;5002076;28;20061;-70
2021/10/08 00:38:36;;;;;;;39.30;16.75;;;;;;;6.34;100.00;102405.56;5005172;28;20052;-70
2021/10/08 00:41:06;;;;;;;30.00;13.98;;;;;;;6.41;100.00;102414.84;4998949;28;20053;-70
2021/10/08 00:43:34;;;;;;;48.28;18.15;;;;;;;6.34;100.00;102409.06;5000426;28;20050;-70
2021/10/08 00:46:03;;;;;;;42.20;16.67;;;;;;;6.40;100.00;102415.78;4997928;28;20073;-70
2021/10/08 00:48:31;;;;;;;61.90;19.50;;;;;;;6.31;100.00;102413.72;5002707;28;20505;-70
2021/10/08 00:50:59;;;;;;;66.53;20.08;;;;;;;6.36;100.00;102417.81;5002540;28;20057;-70
2021/10/08 00:53:27;;;;;;;38.50;16.23;;;;;;;6.35;100.00;102415.22;5000194;28;20056;-69
2021/10/08 00:55:56;;;;;;;71.38;21.50;;;;;;;6.45;100.00;102420.81;5001938;28;20046;-70
2021/10/08 00:58:25;;;;;;;83.13;22.52;;;;;;;6.39;100.00;102422.03;5002479;28;20088;-69
2021/10/08 01:00:53;;;;;;;53.70;17.58;;;;;;;6.46;100.00;102418.03;4998621;28;20553;-70
2021/10/08 01:03:23;;;;;;;52.72;20.13;;;;;;;6.57;100.00;102421.84;5000326;28;20058;-70
2021/10/08 01:05:51;;;;;;;193.10;29.63;;;;;;;6.25;100.00;102414.09;4999815;28;20418;-70
2021/10/08 01:08:19;;;;;;;30.80;12.73;;;;;;;6.05;100.00;102418.00;5000641;28;20493;-70
2021/10/08 01:10:48;;;;;;;28.63;12.02;;;;;;;5.97;100.00;102419.31;5003870;28;20101;-70
2021/10/08 01:13:17;;;;;;;30.80;12.43;;;;;;;5.83;100.00;102420.13;5000145;28;20048;-70
2021/10/08 01:15:45;;;;;;;31.35;12.32;;;;;;;5.76;100.00;102418.78;4996617;28;20046;-70
2021/10/08 01:18:13;;;;;;;24.60;12.27;;;;;;;5.88;100.00;102411.88;5000050;28;20132;-69
2021/10/08 01:20:42;;;;;;;26.45;11.63;;;;;;;5.96;100.00;102422.03;4998274;28;20413;-70
2021/10/08 01:23:10;;;;;;;30.00;11.52;;;;;;;5.88;100.00;102419.81;4999773;28;20045;-70
2021/10/08 01:25:38;;;;;;;24.67;9.52;;;;;;;5.75;100.00;102414.41;4998426;28;20069;-69
2021/10/08 01:28:07;;;;;;;23.35;10.35;;;;;;;5.81;100.00;102415.84;4999690;28;20434;-70
2021/10/08 01:30:35;;;;;;;25.02;11.45;;;;;;;5.88;100.00;102419.00;5001836;28;20063;-70
2021/10/08 01:33:04;;;;;;;29.38;11.82;;;;;;;5.83;100.00;102414.81;4996160;28;20038;-69
2021/10/08 01:35:32;;;;;;;23.73;10.88;;;;;;;5.81;100.00;102415.84;4998684;28;20046;-70
2021/10/08 01:38:01;;;;;;;31.60;13.05;;;;;;;5.91;100.00;102410.84;5002064;28;20045;-69
2021/10/08 01:40:30;;;;;;;30.65;12.95;;;;;;;5.89;100.00;102412.75;4998847;28;20045;-70
2021/10/08 01:42:58;;;;;;;34.15;13.02;;;;;;;5.77;100.00;102409.91;4999991;28;20049;-70
2021/10/08 01:45:26;;;;;;;37.58;13.63;;;;;;;5.69;100.00;102409.50;5008178;28;20042;-70
2021/10/08 01:47:54;;;;;;;42.63;14.63;;;;;;;5.61;100.00;102404.63;5002722;28;20154;-70
2021/10/08 01:50:22;;;;;;;45.38;14.57;;;;;;;5.60;100.00;102410.91;4998305;28;20045;-70
2021/10/08 01:52:49;;;;;;;81.25;17.58;;;;;;;5.46;100.00;102408.22;5000042;28;20301;-69
2021/10/08 01:55:19;;;;;;;155.80;22.90;;;;;;;5.24;100.00;102400.69;5005108;28;20042;-69
2021/10/08 01:57:47;;;;;;;94.30;17.75;;;;;;;5.11;100.00;102411.97;4994872;28;20042;-70
2021/10/08 02:00:15;;;;;;;176.95;26.45;;;;;;;5.03;100.00;102402.78;4999455;28;20050;-69
2021/10/08 02:02:43;;;;;;;71.47;17.73;;;;;;;4.96;100.00;102402.25;5000373;28;20042;-70
2021/10/08 02:05:11;;;;;;;83.32;20.33;;;;;;;5.03;100.00;102400.97;4999553;28;20050;-69
2021/10/08 02:07:40;;;;;;;38.70;14.55;;;;;;;4.99;100.00;102410.06;5000611;28;20042;-70
2021/10/08 02:10:09;;;;;;;297.77;39.10;;;;;;;5.23;100.00;102405.13;4998824;28;20049;-70
2021/10/08 02:12:38;;;;;;;77.60;18.92;;;;;;;5.14;100.00;102406.50;5000109;28;20491;-69
2021/10/08 02:15:06;;;;;;;233.27;33.05;;;;;;;5.18;100.00;102400.09;5001860;28;20042;-69
2021/10/08 02:17:34;;;;;;;35.33;13.65;;;;;;;5.16;100.00;102398.50;4996822;28;20042;-70
2021/10/08 02:20:03;;;;;;;159.77;23.10;;;;;;;5.14;100.00;102411.78;4999425;28;20041;-69
2021/10/08 02:22:31;;;;;;;108.57;23.52;;;;;;;5.10;100.00;102405.00;5003508;28;20050;-70
2021/10/08 02:24:58;;;;;;;128.85;25.73;;;;;;;4.93;100.00;102403.31;5001169;28;20042;-70
2021/10/08 02:27:26;;;;;;;44.25;13.38;;;;;;;4.82;100.00;102403.91;4997783;28;20054;-70
2021/10/08 02:29:56;;;;;;;45.03;15.45;;;;;;;4.75;100.00;102404.31;4997552;28;20437;-70
2021/10/08 02:32:23;;;;;;;36.58;13.95;;;;;;;4.61;100.00;102405.13;5001428;28;20042;-70
2021/10/08 02:34:51;;;;;;;50.00;14.27;;;;;;;4.65;100.00;102404.84;4998898;28;20042;-71
2021/10/08 02:37:19;;;;;;;55.78;15.95;;;;;;;4.72;100.00;102402.72;4999112;28;20054;-70
2021/10/08 02:39:48;;;;;;;49.85;15.75;;;;;;;4.78;100.00;102406.81;5000145;28;20069;-70
2021/10/08 02:42:18;;;;;;;35.22;14.27;;;;;;;4.93;100.00;102400.66;5000641;28;20073;-70
2021/10/08 02:44:46;;;;;;;48.10;16.13;;;;;;;5.06;100.00;102406.09;5000311;28;20101;-69
2021/10/08 02:47:17;;;;;;;41.60;15.85;;;;;;;4.95;100.00;102411.16;4998108;28;20445;-69
2021/10/08 02:49:45;;;;;;;35.70;14.18;;;;;;;5.06;100.00;102408.75;4997518;28;20480;-70
2021/10/08 02:52:14;;;;;;;58.63;15.10;;;;;;;5.20;100.00;102413.22;5001042;28;20133;-70
2021/10/08 02:55:02;;;;;;;53.75;15.45;;;;;;;4.99;100.00;102405.59;4998793;28;20058;-70
2021/10/08 02:57:31;;;;;;;77.53;20.73;;;;;;;5.09;100.00;102408.56;4996664;28;20085;-70
2021/10/08 02:59:59;;;;;;;78.97;22.58;;;;;;;5.24;100.00;102401.50;5000782;28;20081;-70
2021/10/08 03:02:29;;;;;;;134.30;30.77;;;;;;;5.51;100.00;102406.13;5000213;28;20077;-70
2021/10/08 03:04:57;;;;;;;147.65;34.58;;;;;;;5.77;100.00;102407.25;4996854;28;20073;-70
2021/10/08 03:11:07;;;;;;;161.85;32.58;;;;;;;6.02;100.00;102396.03;4995560;28;20030;-70
2021/10/08 03:13:35;;;;;;;143.30;32.28;;;;;;;6.12;100.00;102392.78;4996225;28;20048;-70
2021/10/08 03:16:04;;;;;;;96.80;26.55;;;;;;;6.14;100.00;102399.72;4973887;28;20090;-70
2021/10/08 03:18:34;;;;;;;328.98;54.47;;;;;;;5.98;100.00;102393.63;4988645;28;20108;-70
2021/10/08 03:21:02;;;;;;;93.28;24.77;;;;;;;5.73;100.00;102394.25;4992459;28;20386;-70
2021/10/08 03:23:31;;;;;;;47.97;15.55;;;;;;;5.61;100.00;102399.34;4955035;28;20047;-70
2021/10/08 03:25:59;;;;;;;82.50;19.85;;;;;;;5.40;100.00;102395.31;4958067;28;20133;-70
2021/10/08 03:28:27;;;;;;;256.05;40.85;;;;;;;5.20;100.00;102397.34;4955386;28;20063;-71
2021/10/08 03:30:55;;;;;;;69.88;18.10;;;;;;;4.98;100.00;102401.22;4956251;28;20109;-70
2021/10/08 03:33:23;;;;;;;169.38;30.20;;;;;;;4.77;100.00;102403.31;4954860;28;20051;-70
2021/10/08 03:35:52;;;;;;;97.05;23.80;;;;;;;4.65;100.00;102407.50;4954095;28;20043;-70
2021/10/08 03:38:20;;;;;;;91.30;20.20;;;;;;;4.52;100.00;102405.63;4953440;28;20062;-71
2021/10/08 03:40:54;;;;;;;97.57;21.42;;;;;;;4.44;100.00;102409.53;4958115;28;20069;-71
2021/10/08 03:43:22;;;;;;;63.35;19.92;;;;;;;4.48;100.00;102403.16;4957070;28;20058;-71
2021/10/08 03:45:52;;;;;;;77.18;22.90;;;;;;;4.52;100.00;102403.81;4953027;28;20766;-70
2021/10/08 03:48:34;;;;;;;125.70;29.63;;;;;;;4.68;100.00;102401.19;4955945;28;20050;-70
2021/10/08 03:51:05;;;;;;;179.57;35.55;;;;;;;4.85;100.00;102399.38;4953533;28;20098;-70
2021/10/08 03:53:33;;;;;;;187.85;36.55;;;;;;;4.86;100.00;102403.72;4955220;28;20043;-70
2021/10/08 03:56:01;;;;;;;116.10;27.95;;;;;;;4.87;100.00;102403.63;4953853;28;20042;-70
2021/10/08 03:58:29;;;;;;;163.88;32.40;;;;;;;4.92;100.00;102408.66;4950757;28;20410;-70
2021/10/08 04:00:57;;;;;;;74.70;22.42;;;;;;;4.90;100.00;102402.63;4955431;28;20953;-69
2021/10/08 04:03:25;;;;;;;102.15;25.02;;;;;;;4.97;100.00;102404.81;4952093;28;20047;-70
2021/10/08 04:05:53;;;;;;;92.43;23.40;;;;;;;5.02;100.00;102409.00;4957825;28;20206;-70
2021/10/08 04:08:22;;;;;;;272.55;45.80;;;;;;;4.93;100.00;102405.97;4954455;28;20459;-70
2021/10/08 04:10:50;;;;;;;258.70;43.63;;;;;;;4.92;100.00;102406.88;4955532;28;20457;-70
2021/10/08 04:13:18;;;;;;;278.55;44.13;;;;;;;5.00;100.00;102406.44;4960815;28;20070;-70
2021/10/08 04:15:46;;;;;;;298.02;48.20;;;;;;;4.95;100.00;102405.88;4954634;28;20054;-70
2021/10/08 04:18:14;;;;;;;71.22;21.80;;;;;;;4.83;100.00;102407.41;4950505;28;20039;-70
2021/10/08 04:20:42;;;;;;;130.25;30.85;;;;;;;4.81;100.00;102410.13;4959575;28;20411;-70
2021/10/08 04:23:10;;;;;;;125.45;29.88;;;;;;;4.99;100.00;102413.53;4954669;28;20031;-72
2021/10/08 04:25:40;;;;;;;317.13;58.55;;;;;;;5.37;100.00;102414.91;4960322;28;20101;-69
2021/10/08 04:28:08;;;;;;;412.42;65.75;;;;;;;5.54;100.00;102421.00;4955111;28;20047;-69
2021/10/08 04:30:36;;;;;;;266.23;47.25;;;;;;;5.39;100.00;102426.28;4954550;28;20049;-70
2021/10/08 04:33:13;;;;;;;173.18;36.65;;;;;;;5.27;100.00;102424.34;4955367;28;20074;-69
2021/10/08 04:35:41;;;;;;;122.07;32.22;;;;;;;5.42;100.00;102419.94;4952273;28;20050;-69
2021/10/08 04:38:10;;;;;;;341.42;61.35;;;;;;;5.69;100.00;102428.91;4956559;28;20047;-69
2021/10/08 04:40:38;;;;;;;381.92;67.47;;;;;;;5.84;100.00;102427.13;4959980;28;20043;-69
2021/10/08 04:43:07;;;;;;;330.15;57.45;;;;;;;5.52;100.00;102427.25;4953378;28;20655;-70
2021/10/08 04:45:35;;;;;;;128.82;33.88;;;;;;;5.47;100.00;102431.13;4951595;28;20461;-70
2021/10/08 04:48:04;;;;;;;220.48;48.35;;;;;;;5.41;100.00;102432.31;4954881;28;20054;-70
2021/10/08 04:50:32;;;;;;;137.05;34.67;;;;;;;5.50;100.00;102429.16;4955175;28;20058;-70
2021/10/08 04:53:00;;;;;;;186.93;42.42;;;;;;;5.59;100.00;102430.41;4956380;28;20043;-70
2021/10/08 04:55:28;;;;;;;147.43;36.33;;;;;;;5.60;100.00;102429.47;4954627;28;20097;-70
2021/10/08 04:57:56;;;;;;;79.70;28.45;;;;;;;5.65;100.00;102437.97;4958131;28;20051;-71
2021/10/08 05:00:27;;;;;;;233.40;44.15;;;;;;;5.49;100.00;102437.19;4956096;28;20439;-70
2021/10/08 05:02:55;;;;;;;200.77;38.05;;;;;;;5.30;100.00;102437.41;4960686;28;20043;-70
2021/10/08 05:05:23;;;;;;;159.93;35.65;;;;;;;5.13;100.00;102441.00;4955819;28;20110;-70
2021/10/08 05:07:51;;;;;;;264.92;51.53;;;;;;;4.95;100.00;102433.19;4957695;28;20047;-70
2021/10/08 05:10:22;;;;;;;454.88;71.80;;;;;;;5.01;100.00;102429.34;4956320;28;20059;-69
2021/10/08 05:12:50;;;;;;;108.22;29.10;;;;;;;4.92;100.00;102432.50;4959032;28;20050;-69
2021/10/08 05:15:22;;;;;;;151.35;32.97;;;;;;;4.90;100.00;102426.44;4953686;28;20043;-69
2021/10/08 05:17:51;;;;;;;403.00;64.47;;;;;;;4.87;100.00;102431.91;4955538;28;20081;-70
2021/10/08 05:20:19;;;;;;;221.75;42.45;;;;;;;4.84;100.00;102438.22;4955932;28;20496;-70
2021/10/08 05:22:48;;;;;;;79.38;25.85;;;;;;;4.64;100.00;102436.69;4960888;28;20051;-70
2021/10/08 05:25:16;;;;;;;156.20;34.03;;;;;;;4.52;100.00;102438.22;4957530;28;20051;-71
2021/10/08 05:27:44;;;;;;;195.27;38.42;;;;;;;4.64;100.00;102442.00;4957812;28;20387;-70
2021/10/08 05:30:13;;;;;;;274.13;47.92;;;;;;;4.58;100.00;102437.00;4956240;28;20038;-70
2021/10/08 05:32:41;;;;;;;112.40;26.23;;;;;;;4.42;100.00;102451.13;4959261;28;20402;-70
2021/10/08 05:35:13;;;;;;;104.88;25.17;;;;;;;4.34;100.00;102437.44;4957013;28;20051;-70
2021/10/08 05:37:41;;;;;;;250.98;46.05;;;;;;;4.42;100.00;102447.59;4962759;28;20051;-71
2021/10/08 05:40:11;;;;;;;78.50;22.95;;;;;;;4.21;100.00;102444.31;4955404;28;20438;-70
2021/10/08 05:42:39;;;;;;;71.30;20.80;;;;;;;4.22;100.00;102443.38;4957015;28;20419;-70
2021/10/08 05:45:10;;;;;;;107.15;27.15;;;;;;;4.28;100.00;102448.31;4958072;28;20047;-70
2021/10/08 05:47:38;;;;;;;71.40;22.65;;;;;;;4.21;100.00;102446.94;4954374;28;20042;-71
2021/10/08 05:50:06;;;;;;;54.38;20.05;;;;;;;4.31;100.00;102446.38;4957064;28;20073;-70
2021/10/08 05:52:40;;;;;;;92.47;24.98;;;;;;;4.34;100.00;102458.59;4959371;28;20062;-71
2021/10/08 05:55:09;;;;;;;142.88;31.05;;;;;;;4.26;100.00;102459.00;4951752;28;20054;-69
2021/10/08 05:57:37;;;;;;;300.55;49.72;;;;;;;4.21;100.00;102453.13;4957223;28;20046;-70
2021/10/08 06:00:06;;;;;;;159.13;35.70;;;;;;;4.15;100.00;102461.34;4960323;28;20058;-70
2021/10/08 06:02:34;;;;;;;94.35;26.73;;;;;;;3.99;100.00;102449.88;4960349;28;20058;-70
2021/10/08 06:05:02;;;;;;;246.73;44.53;;;;;;;4.10;100.00;102461.59;4950475;28;20050;-69
2021/10/08 06:07:30;;;;;;;255.27;44.78;;;;;;;4.23;100.00;102460.97;4959542;28;20043;-70
2021/10/08 06:09:59;;;;;;;269.27;45.40;;;;;;;4.19;100.00;102464.69;4961528;28;20063;-69
2021/10/08 06:12:27;;;;;;;215.43;39.08;;;;;;;4.06;100.00;102462.69;4957082;28;20038;-69
2021/10/08 06:14:55;;;;;;;278.20;46.17;;;;;;;4.08;100.00;102468.78;4954151;28;20043;-70
2021/10/08 06:17:23;;;;;;;359.42;54.35;;;;;;;4.17;100.00;102477.13;4960597;28;20355;-69
2021/10/08 06:19:51;;;;;;;344.10;54.42;;;;;;;4.25;100.00;102475.81;4959016;28;20070;-69
2021/10/08 06:22:19;;;;;;;283.77;48.70;;;;;;;4.26;100.00;102474.84;4964469;28;20131;-70
2021/10/08 06:24:47;;;;;;;88.60;25.67;;;;;;;4.32;100.00;102471.03;4957080;28;20050;-70
2021/10/08 06:27:16;;;;;;;76.13;24.00;;;;;;;4.61;100.00;102476.56;4960221;28;20427;-70
2021/10/08 06:29:44;;;;;;;134.35;34.00;;;;;;;4.63;100.00;102475.53;4956695;28;20040;-71
2021/10/08 06:32:12;;;;;;;189.77;37.22;;;;;;;4.74;100.00;102468.81;4956686;28;20047;-70
2021/10/08 06:34:40;;;;;;;87.43;26.60;;;;;;;5.04;100.00;102479.47;4953522;28;20502;-70
2021/10/08 06:37:08;;;;;;;79.68;23.67;;;;;;;5.06;100.00;102477.59;4957034;28;20359;-69
2021/10/08 06:39:36;;;;;;;83.43;24.38;;;;;;;4.85;100.00;102479.66;4951891;28;20427;-72
2021/10/08 06:42:04;;;;;;;94.93;23.88;;;;;;;4.81;100.00;102473.66;4964040;28;20386;-71
2021/10/08 06:44:33;;;;;;;96.40;23.92;;;;;;;4.75;100.00;102476.66;4955558;28;20046;-71
2021/10/08 06:47:01;;;;;;;57.75;18.50;;;;;;;5.26;100.00;102484.41;4953168;28;20279;-69
2021/10/08 06:49:29;;;;;;;95.72;24.38;;;;;;;5.94;100.00;102479.59;4956473;28;20058;-71
2021/10/08 06:51:57;;;;;;;49.78;18.90;;;;;;;6.27;100.00;102486.50;4956171;28;20047;-71
2021/10/08 06:54:25;;;;;;;48.60;16.15;;;;;;;6.49;100.00;102481.56;4957205;28;20493;-71
2021/10/08 06:56:53;;;;;;;73.97;20.63;;;;;;;6.94;100.00;102485.88;4954249;28;21461;-71
2021/10/08 06:59:21;;;;;;;34.75;14.35;;;;;;;7.23;100.00;102490.16;4955427;28;20046;-71
2021/10/08 07:01:51;;;;;;;40.95;14.93;;;;;;;7.53;100.00;102483.75;4956884;28;20043;-71
2021/10/08 07:04:19;;;;;;;36.75;12.93;;;;;;;6.76;100.00;102496.69;4957318;28;20050;-71
2021/10/08 07:06:47;;;;;;;34.00;12.70;;;;;;;6.69;100.00;102496.25;4958461;28;20055;-71
2021/10/08 07:09:15;;;;;;;23.88;11.95;;;;;;;6.73;100.00;102494.25;4958004;28;20062;-72
2021/10/08 07:11:43;;;;;;;24.85;10.10;;;;;;;6.54;100.00;102491.91;4958163;28;20113;-71
2021/10/08 07:14:10;;;;;;;24.73;10.50;;;;;;;6.35;100.00;102495.69;4959123;28;20054;-71
2021/10/08 07:16:39;;;;;;;23.30;10.27;;;;;;;6.00;100.00;102490.72;4953589;28;20047;-71
2021/10/08 07:19:11;;;;;;;23.40;10.27;;;;;;;5.98;100.00;102499.72;4957399;28;20078;-71
2021/10/08 07:21:42;;;;;;;26.58;11.73;;;;;;;5.98;100.00;102491.75;4958607;28;20055;-71
2021/10/08 07:24:10;;;;;;;43.20;13.57;;;;;;;6.06;100.00;102500.13;4956515;28;20509;-71
2021/10/08 07:26:39;;;;;;;43.97;14.80;;;;;;;6.06;100.00;102502.75;4955871;28;20050;-71
2021/10/08 07:29:07;;;;;;;39.28;13.75;;;;;;;6.10;100.00;102501.63;4958177;28;20055;-71
2021/10/08 07:31:34;;;;;;;49.30;14.98;;;;;;;6.10;100.00;102506.94;4956134;28;20134;-71
2021/10/08 07:34:03;;;;;;;43.90;16.42;;;;;;;6.24;100.00;102510.53;4955805;28;20039;-72
2021/10/08 07:36:32;;;;;;;38.63;15.00;;;;;;;6.44;100.00;102510.19;4951219;28;20133;-70
2021/10/08 07:39:00;;;;;;;46.90;17.67;;;;;;;6.50;100.00;102515.09;4958611;28;20053;-70
2021/10/08 07:41:28;;;;;;;54.80;18.15;;;;;;;6.53;100.00;102504.34;4958922;28;20085;-71
2021/10/08 07:43:56;;;;;;;66.95;20.77;;;;;;;6.67;100.00;102510.56;4953715;28;20050;-71
2021/10/08 07:46:24;;;;;;;59.80;23.38;;;;;;;7.44;100.00;102508.28;4957247;28;20043;-71
2021/10/08 07:48:52;;;;;;;64.47;23.17;;;;;;;7.74;100.00;102513.38;4955269;28;20038;-71
2021/10/08 07:51:20;;;;;;;77.72;26.38;;;;;;;7.96;100.00;102513.75;4955832;28;20102;-71
2021/10/08 07:53:50;;;;;;;60.50;24.85;;;;;;;7.90;100.00;102520.31;4957758;28;20393;-72
2021/10/08 07:56:18;;;;;;;87.70;30.45;;;;;;;8.34;100.00;102516.41;4955549;28;20050;-72
2021/10/08 07:58:46;;;;;;;95.20;31.67;;;;;;;8.85;100.00;102514.69;4957705;28;20362;-71
2021/10/08 08:01:14;;;;;;;106.03;33.60;;;;;;;9.08;100.00;102521.00;4956896;28;20047;-71
2021/10/08 08:03:42;;;;;;;90.68;33.03;;;;;;;9.19;100.00;102526.41;4952816;28;20289;-71
2021/10/08 08:06:10;;;;;;;94.50;35.38;;;;;;;9.19;100.00;102522.91;4972111;28;20039;-71
2021/10/08 08:08:38;;;;;;;78.45;32.78;;;;;;;9.37;100.00;102523.34;4956183;28;20047;-71
2021/10/08 08:11:07;;;;;;;104.50;34.60;;;;;;;9.51;100.00;102528.47;4957562;28;20058;-71
2021/10/08 08:13:35;;;;;;;93.18;33.63;;;;;;;9.61;100.00;102529.53;4954658;28;20038;-71
2021/10/08 08:16:04;;;;;;;96.95;33.83;;;;;;;9.74;100.00;102536.59;4950716;28;20054;-71
2021/10/08 08:18:32;;;;;;;87.07;32.15;;;;;;;9.72;100.00;102522.53;4953820;28;20478;-71
2021/10/08 08:21:00;;;;;;;97.85;31.65;;;;;;;9.80;100.00;102518.31;4953024;28;20055;-72
2021/10/08 08:23:28;;;;;;;90.65;34.10;;;;;;;9.86;100.00;102516.16;4956061;28;20043;-71
2021/10/08 08:25:55;;;;;;;78.28;32.17;;;;;;;9.93;100.00;102502.19;4952531;28;20043;-72
2021/10/08 08:28:26;;;;;;;90.45;32.85;;;;;;;10.06;100.00;102503.94;4955847;28;20533;-65
2021/10/08 08:30:57;;;;;;;85.90;33.42;;;;;;;10.10;100.00;102502.72;4955191;28;20331;-65
2021/10/08 08:33:25;;;;;;;92.15;34.28;;;;;;;10.16;100.00;102499.56;4960361;28;20054;-65
2021/10/08 08:35:54;;;;;;;91.72;30.98;;;;;;;10.37;100.00;102491.75;4958637;28;20047;-64
2021/10/08 08:38:21;;;;;;;91.03;30.88;;;;;;;10.47;100.00;102492.69;4962109;28;20042;-64
2021/10/08 08:40:49;;;;;;;84.47;34.75;;;;;;;10.50;100.00;102483.59;4959404;28;20059;-65
2021/10/08 08:43:17;;;;;;;79.00;32.28;;;;;;;10.63;100.00;102488.81;4961877;28;20438;-65
2021/10/08 08:45:47;;;;;;;83.85;31.15;;;;;;;10.80;100.00;102485.66;4953456;28;20071;-65
2021/10/08 08:48:15;;;;;;;77.78;31.50;;;;;;;11.19;100.00;102487.88;4961917;28;20300;-65
2021/10/08 08:50:45;;;;;;;73.75;29.65;;;;;;;11.70;100.00;102483.63;4959540;28;20069;-65
2021/10/08 08:53:13;;;;;;;69.78;27.52;;;;;;;12.35;100.00;102481.66;4958051;28;20375;-66
2021/10/08 08:55:41;;;;;;;56.25;25.20;;;;;;;13.00;100.00;102481.28;4954155;28;20054;-66
2021/10/08 08:58:09;;;;;;;59.72;25.58;;;;;;;12.45;100.00;102462.94;4957633;28;20354;-65
2021/10/08 09:00:37;;;;;;;66.80;26.05;;;;;;;13.20;100.00;102468.75;4960718;28;20435;-66
2021/10/08 09:03:13;;;;;;;45.83;21.23;;;;;;;13.58;100.00;102463.53;4957890;28;20062;-66
2021/10/08 09:05:47;;;;;;;41.05;19.38;;;;;;;13.97;100.00;102449.19;4959347;28;20046;-69
2021/10/08 09:08:15;;;;;;;38.28;20.67;;;;;;;13.59;100.00;102446.44;4960662;28;20050;-68
2021/10/08 09:10:46;;;;;;;49.58;22.38;;;;;;;13.76;100.00;102443.03;4961130;28;20054;-68
2021/10/08 09:13:14;;;;;;;33.75;17.40;;;;;;;14.63;100.00;102429.44;4959133;28;20057;-68
2021/10/08 09:15:48;;;;;;;40.45;17.63;;;;;;;14.75;100.00;102428.19;4957761;28;20051;-69
2021/10/08 09:18:18;;;;;;;39.70;18.77;;;;;;;14.08;100.00;102424.84;4956676;28;20265;-69
2021/10/08 09:21:09;;;;;;;37.10;17.33;;;;;;;13.96;100.00;102432.22;4958512;28;20286;-69
2021/10/08 09:23:41;;;;;;;31.08;15.05;;;;;;;15.25;100.00;102420.59;4954926;28;20448;-69
2021/10/08 09:26:15;;;;;;;24.58;14.48;;;;;;;15.09;100.00;102418.63;4958637;28;20341;-70
2021/10/08 09:28:56;;;;;;;41.22;15.73;;;;;;;14.71;100.00;102420.59;4956506;28;20039;-69
2021/10/08 09:31:29;;;;;;;34.95;13.93;;;;;;;14.97;100.00;102416.16;4959116;28;20044;-69
2021/10/08 09:34:15;;;;;;;30.13;14.73;;;;;;;16.16;100.00;102422.94;4957237;28;20339;-69
2021/10/08 09:36:47;;;;;;;28.67;13.80;;;;;;;15.61;100.00;102413.31;4957597;28;20039;-68
2021/10/08 09:39:20;;;;;;;32.08;14.68;;;;;;;16.39;100.00;102416.97;4959114;28;20359;-69
2021/10/08 09:41:56;;;;;;;28.10;15.80;;;;;;;16.90;100.00;102413.41;4960482;28;20050;-68
2021/10/08 09:44:25;;;;;;;22.63;11.75;;;;;;;17.13;100.00;102409.06;4956234;28;20039;-68
2021/10/08 09:46:53;;;;;;;26.75;12.02;;;;;;;16.81;100.00;102410.69;4958210;28;20445;-68
2021/10/08 09:49:23;;;;;;;27.17;12.68;;;;;;;16.91;100.00;102413.28;4957233;28;20049;-68
2021/10/08 09:51:52;;;;;;;21.73;10.77;;;;;;;15.98;100.00;102411.41;4958749;28;20050;-68
2021/10/08 09:54:20;;;;;;;25.75;11.82;;;;;;;16.59;100.00;102408.63;4959344;28;20058;-68
2021/10/08 09:56:59;;;;;;;22.13;10.63;;;;;;;16.75;100.00;102410.50;4958441;28;20047;-68
2021/10/08 09:59:38;;;;;;;21.48;11.73;;;;;;;17.28;100.00;102408.38;4959611;28;20413;-69
2021/10/08 10:02:06;;;;;;;21.20;10.80;;;;;;;17.51;100.00;102408.56;4957033;28;20076;-69
2021/10/08 10:04:50;;;;;;;20.13;10.75;;;;;;;17.11;100.00;102399.44;4957148;28;20047;-68
2021/10/08 10:07:20;;;;;;;19.23;10.60;;;;;;;16.91;100.00;102407.00;4960157;28;20042;-68
2021/10/08 10:09:48;;;;;;;18.63;9.02;;;;;;;17.01;100.00;102408.56;4955909;28;20465;-68
2021/10/08 10:12:33;;;;;;;18.20;10.07;;;;;;;18.05;100.00;102411.47;4958179;28;20316;-68
2021/10/08 10:15:02;;;;;;;18.40;9.13;;;;;;;16.27;100.00;102410.19;4954848;28;20886;-68
2021/10/08 10:17:30;;;;;;;17.73;9.73;;;;;;;17.70;100.00;102407.31;4959076;28;20050;-68
2021/10/08 10:20:00;;;;;;;19.42;9.50;;;;;;;17.75;100.00;102407.66;4961445;28;20070;-71
2021/10/08 10:22:27;;;;;;;17.35;9.02;;;;;;;18.13;100.00;102405.22;4959722;28;20439;-68
2021/10/08 10:24:55;;;;;;;17.77;9.18;;;;;;;16.54;100.00;102403.69;4954468;28;20398;-67
2021/10/08 10:27:23;;;;;;;16.75;8.45;;;;;;;18.21;100.00;102407.03;4957371;28;20505;-67
2021/10/08 10:29:52;;;;;;;13.77;8.90;;;;;;;18.30;100.00;102405.13;4956608;28;20094;-68
2021/10/08 10:32:20;;;;;;;12.80;7.35;;;;;;;19.13;100.00;102397.38;4956223;28;20201;-67
2021/10/08 10:34:48;;;;;;;16.10;9.65;;;;;;;19.42;100.00;102396.59;4955467;28;20042;-68
2021/10/08 10:37:37;;;;;;;14.50;7.97;;;;;;;19.12;100.00;102399.22;4954470;28;20046;-67
2021/10/08 10:40:19;;;;;;;12.45;6.65;;;;;;;18.47;100.00;102400.50;4956891;28;20098;-67
2021/10/08 10:42:47;;;;;;;12.35;6.65;;;;;;;18.23;100.00;102407.72;4956389;28;20043;-67
2021/10/08 10:45:20;;;;;;;12.55;7.47;;;;;;;17.63;100.00;102404.47;4958640;28;20494;-67
2021/10/08 10:48:12;;;;;;;15.32;7.95;;;;;;;17.83;100.00;102404.94;4958419;28;20046;-68
2021/10/08 10:51:10;;;;;;;13.77;7.80;;;;;;;18.10;100.00;102400.13;4959855;28;20043;-68
2021/10/08 10:53:50;;;;;;;13.98;7.00;;;;;;;19.14;100.00;102397.22;4954271;28;20035;-67
2021/10/08 10:56:42;;;;;;;12.93;7.50;;;;;;;19.66;100.00;102397.41;4958633;28;20394;-67
2021/10/08 10:59:26;;;;;;;10.98;6.70;;;;;;;19.76;100.00;102393.41;4951272;28;20059;-69
2021/10/08 11:02:23;;;;;;;14.55;7.57;;;;;;;19.17;100.00;102394.13;4956786;28;20050;-67
2021/10/08 11:04:55;;;;;;;12.50;7.90;;;;;;;19.15;100.00;102384.50;4956338;28;20043;-67
2021/10/08 11:07:24;;;;;;;11.85;7.18;;;;;;;19.41;100.00;102384.94;4957456;28;20050;-67
2021/10/08 11:10:20;;;;;;;10.70;6.28;;;;;;;18.85;100.00;102387.91;4956530;28;20051;-67
2021/10/08 11:12:48;;;;;;;;;;;;;;;19.80;100.00;102382.22;4955654;28;20050;-68
2021/10/08 11:15:35;;;;;;;12.15;7.57;;;;;;;18.86;100.00;102389.59;4955930;28;19969;-67
2021/10/08 11:18:04;;;;;;;11.15;7.35;;;;;;;18.70;100.00;102387.84;4957454;28;20057;-67
2021/10/08 11:20:46;;;;;;;12.63;7.38;;;;;;;19.48;100.00;102382.34;4957257;28;20050;-67
2021/10/08 11:23:37;;;;;;;15.43;8.30;;;;;;;19.09;100.00;102384.22;4958158;28;20358;-67